Absecon Highlands, NJ

7:15 AM EDT on September 01, 2014 (GMT -0400)
Galloway Twp Police Dept | Change Station
CLOSE
Current Station
Personal Weather Station
Location: Galloway, NJ
Elevation: 30 ft
Nearby Weather Stations

Elev 30 ft 39.46 °N, 74.50 °W | Updated 9 seconds ago

Mostly Cloudy
Mostly Cloudy
73.0 °F
Feels Like 73.0 °F
N
0.0
Wind Variable Wind from West
Gusts 0.0 mph

Today
High -- | Low -- °F
--% Chance of Precip.
Yesterday
High -- | Low -- °F
Precip. -- in
6:26 AM 7:28 PM
Waxing Crescent, 40% visible
Pressure 30.03 in
Visibility 10.0 miles
Clouds Mostly Cloudy 6500 ft
Mostly Cloudy 11000 ft
Dew Point 72 °F
Humidity 97%
Rainfall 0.14 in
Snow Depth Not available.
UV 0 out of 12
Pollen 9.10 out of 12
Ozone Good
PM2.5 Good
Flu Activity Not available.
METAR KACY 011054Z 00000KT 10SM BKN065 BKN110 23/22 A3003 RMK AO2 SLP168 T02280222

More Conditions Fewer Conditions

Pressure 30.03 in
Visibility 10.0 miles
Clouds Mostly Cloudy 6500 ft
Mostly Cloudy 11000 ft
Dew Point 72 °F
Humidity 97%
Rainfall 0.14 in
Snow Depth Not available.
UV 0 out of 12
Pollen 9.10 out of 12
Ozone Good
PM2.5 Good
Flu Activity Not available.
METAR KACY 011054Z 00000KT 10SM BKN065 BKN110 23/22 A3003 RMK AO2 SLP168 T02280222

More Conditions Fewer Conditions

10-Day Weather Forecast

Almanac

Astronomy

Sep. 01, 2014 Rise Set
Actual Time 6:26 AM EDT 7:28 PM EDT
Civil Twilight 5:58 AM EDT 7:56 PM EDT
Nautical Twilight 5:25 AM EDT 8:29 PM EDT
Astronomical Twilight 4:51 AM EDT 9:03 PM EDT
Moon 1:07 PM EDT 11:30 PM EDT
Length of Visible Light 13h 57m
Length of Day
13h 02m
Tomorrow will be 2m 29s shorter.
Waxing Crescent, 40% of the Moon is Illuminated
Today
Waxing Crescent
Sep 2
First Quarter
Sep 8
Full
Sep 15
Last Quarter
Sep 24
New

Today's Extremes

State Highs State Lows

Community

WunderPhotos

Upload Photos

1,749,188 photos uploaded!

Nearby

Air Quality

  Air Quality AQ Index Pollutant
Yesterday Moderate
PM2.5
Yesterday Good
OZONE
Current Good
PM2.5
Current Good
OZONE
Monday Moderate
PM2.5
Monday Good
OZONE
Tuesday Moderate
OZONE
Tuesday Moderate
PM2.5
Wednesday Moderate
OZONE
Wednesday Good
PM2.5

Snow Depth

Station Depth Elevation
No new snow has been reported.

Earthquake Activity

City Distance Mag. Time & Date
No recent earthquake activity has been reported nearby.
Minimum magnitude displayed is 2.5.

Coastal Water Temperatures

Place Temperature
Atlantic City, NJ 75.0 °F

Nearby Weather Stations